Time;durP1;ratioP1;P1;durP2;ratioP2;P2;SDS_P1;SDS_P2;PMS_P1;PMS_P2;Temp;Humidity;BMP_temperature;BMP_pressure;BME280_temperature;BME280_humidity;BME280_pressure;Samples;Min_cycle;Max_cycle;Signal;HPM_P1;HPM_P2
2021/05/20 00:02:34;;;;;;;;;;;;;;;21.42;59.06;101757.25;5133770;27;1307;-67
2021/05/20 00:05:25;;;;;;;;;;;;;;;21.43;59.14;101748.38;5133462;27;1259;-66
2021/05/20 00:08:10;;;;;;;;;;;;;;;21.42;59.19;101751.94;5133236;27;1902;-66
2021/05/20 00:10:55;;;;;;;;;;;;;;;21.41;59.00;101744.91;5133474;27;1247;-66
2021/05/20 00:13:41;;;;;;;;;;;;;;;21.40;59.04;101732.63;5131965;27;679;-67
2021/05/20 00:16:26;;;;;;;;;;;;;;;21.39;59.02;101738.84;5133616;27;1249;-67
2021/05/20 00:19:11;;;;;;;;;;;;;;;21.40;59.16;101732.63;5133175;27;680;-67
2021/05/20 00:21:57;;;;;;;;;;;;;;;21.38;59.09;101730.03;5132122;27;1275;-67
2021/05/20 00:24:42;;;;;;;;;;;;;;;21.38;59.28;101724.72;5131831;27;635;-67
2021/05/20 00:27:28;;;;;;;;;;;;;;;21.38;59.29;101723.88;5133319;27;1901;-67
2021/05/20 00:30:13;;;;;;;;;;;;;;;21.39;59.38;101725.59;5132907;27;1325;-66
2021/05/20 00:32:59;;;;;;;;;;;;;;;21.38;59.27;101716.78;5133002;27;703;-67
2021/05/20 00:35:44;;;;;;;;;;;;;;;21.39;59.29;101710.56;5133067;27;1256;-67
2021/05/20 00:38:29;;;;;;;;;;;;;;;21.38;59.23;101713.28;5132908;27;722;-66
2021/05/20 00:41:14;;;;;;;;;;;;;;;21.39;59.33;101717.66;5132920;27;1219;-67
2021/05/20 00:44:00;;;;;;;;;;;;;;;21.38;59.22;101718.56;5131758;27;599;-67
2021/05/20 00:46:45;;;;;;;;;;;;;;;21.38;59.23;101724.72;5130966;27;1333;-67
2021/05/20 00:49:30;;;;;;;;;;;;;;;21.37;59.19;101716.88;5131542;27;1770;-67
2021/05/20 00:52:16;;;;;;;;;;;;;;;21.37;59.46;101717.72;5132614;27;1287;-66
2021/05/20 00:55:02;;;;;;;;;;;;;;;21.37;59.49;101722.19;5132555;27;1081;-67
2021/05/20 00:57:48;;;;;;;;;;;;;;;21.37;59.45;101727.47;5132468;27;875;-67
2021/05/20 01:00:34;;;;;;;;;;;;;;;21.36;59.44;101726.63;5130440;27;1267;-67
2021/05/20 01:03:19;;;;;;;;;;;;;;;21.36;59.49;101723.97;5132220;27;663;-67
2021/05/20 01:06:05;;;;;;;;;;;;;;;21.37;59.63;101724.84;5132577;27;1316;-67
2021/05/20 01:08:50;;;;;;;;;;;;;;;21.36;59.58;101728.41;5132033;27;1906;-67
2021/05/20 01:11:36;;;;;;;;;;;;;;;21.36;59.62;101731.91;5132526;27;1314;-67
2021/05/20 01:14:22;;;;;;;;;;;;;;;21.35;59.58;101732.00;5131874;27;870;-67
2021/05/20 01:17:07;;;;;;;;;;;;;;;21.36;59.52;101731.06;5131365;27;1471;-67
2021/05/20 01:19:53;;;;;;;;;;;;;;;21.35;59.77;101724.91;5131776;27;1133;-67
2021/05/20 01:22:38;;;;;;;;;;;;;;;21.34;59.67;101722.34;5131862;27;659;-67
2021/05/20 01:25:24;;;;;;;;;;;;;;;21.35;59.81;101724.03;5131969;27;1317;-67
2021/05/20 01:28:10;;;;;;;;;;;;;;;21.34;59.66;101722.34;5132089;27;1906;-66
2021/05/20 01:30:55;;;;;;;;;;;;;;;21.34;59.68;101722.34;5131986;27;1326;-67
2021/05/20 01:33:41;;;;;;;;;;;;;;;21.33;60.10;101720.63;5131852;27;729;-66
2021/05/20 01:36:26;;;;;;;;;;;;;;;21.33;59.79;101708.22;5132070;27;1230;-66
2021/05/20 01:39:12;;;;;;;;;;;;;;;21.33;59.82;101704.72;5131526;27;628;-66
2021/05/20 01:41:57;;;;;;;;;;;;;;;21.32;59.71;101711.81;5131636;27;1348;-66
2021/05/20 01:44:42;;;;;;;;;;;;;;;21.32;59.80;101709.16;5130923;27;631;-66
2021/05/20 01:47:28;;;;;;;;;;;;;;;21.32;59.88;101698.56;5131315;27;1894;-66
2021/05/20 01:50:13;;;;;;;;;;;;;;;21.31;60.12;101688.88;5144015;27;1485;-66
2021/05/20 01:52:58;;;;;;;;;;;;;;;21.31;59.87;101691.53;5151959;27;686;-64
2021/05/20 01:55:47;;;;;;;;;;;;;;;21.31;59.84;101691.53;5136323;27;1247;-66
2021/05/20 01:58:33;;;;;;;;;;;;;;;21.31;59.90;101691.53;5152246;27;682;-66
2021/05/20 02:01:18;;;;;;;;;;;;;;;21.32;59.91;101689.75;5151654;27;1258;-65
2021/05/20 02:04:04;;;;;;;;;;;;;;;21.31;59.96;101683.59;5151384;27;581;-66
2021/05/20 02:06:49;;;;;;;;;;;;;;;21.30;59.90;101676.59;5151998;27;1274;-66
2021/05/20 02:09:34;;;;;;;;;;;;;;;21.32;59.85;101681.78;5151738;27;1968;-65
2021/05/20 02:12:19;;;;;;;;;;;;;;;21.30;60.08;101675.72;5151433;27;1298;-66
2021/05/20 02:15:05;;;;;;;;;;;;;;;21.30;60.15;101673.94;5151655;27;1104;-66
2021/05/20 02:17:53;;;;;;;;;;;;;;;21.31;60.25;101680.09;5151676;27;690;-66
2021/05/20 02:20:38;;;;;;;;;;;;;;;21.30;60.28;101673.06;5151505;27;1234;-66
2021/05/20 02:23:24;;;;;;;;;;;;;;;21.30;60.04;101673.94;5151484;27;654;-66
2021/05/20 02:26:09;;;;;;;;;;;;;;;21.28;60.14;101669.66;5151543;27;1239;-66
2021/05/20 02:28:55;;;;;;;;;;;;;;;21.28;60.39;101670.50;5151146;27;1976;-66
2021/05/20 02:31:40;;;;;;;;;;;;;;;21.30;60.11;101662.47;5151627;27;1312;-66
2021/05/20 02:34:25;;;;;;;;;;;;;;;21.29;60.23;101663.41;5151174;27;666;-66
2021/05/20 02:37:11;;;;;;;;;;;;;;;21.27;60.19;101666.16;5151315;27;1276;-67
2021/05/20 02:39:56;;;;;;;;;;;;;;;21.29;60.37;101674.88;5151121;27;1066;-66
2021/05/20 02:42:42;;;;;;;;;;;;;;;21.28;60.35;101664.38;5135334;27;655;-66
2021/05/20 02:45:28;;;;;;;;;;;;;;;21.28;60.06;101665.19;5150931;27;1223;-67
2021/05/20 02:48:13;;;;;;;;;;;;;;;21.27;60.16;101655.56;5150959;27;1901;-67
2021/05/20 02:50:59;;;;;;;;;;;;;;;21.28;60.11;101659.06;5151116;27;1449;-67
2021/05/20 02:53:44;;;;;;;;;;;;;;;21.27;60.40;101660.84;5150445;27;640;-66
2021/05/20 02:56:29;;;;;;;;;;;;;;;21.28;60.49;101664.38;5151460;27;1259;-66
2021/05/20 02:59:15;;;;;;;;;;;;;;;21.27;60.36;101650.25;5135623;27;560;-66
2021/05/20 03:02:07;;;;;;;;;;;;;;;21.27;60.50;101658.22;5151126;27;1337;-66
2021/05/20 03:04:52;;;;;;;;;;;;;;;21.26;60.45;101651.19;5135310;27;1113;-66
2021/05/20 03:07:38;;;;;;;;;;;;;;;21.25;60.49;101650.31;5135328;27;1906;-66
2021/05/20 03:10:23;;;;;;;;;;;;;;;21.25;60.48;101650.31;5151030;27;1268;-66
2021/05/20 03:13:09;;;;;;;;;;;;;;;21.25;60.68;101650.31;5150715;27;725;-66
2021/05/20 03:15:54;;;;;;;;;;;;;;;21.28;60.63;101653.78;5150397;27;1263;-66
2021/05/20 03:18:39;;;;;;;;;;;;;;;21.24;60.60;101651.28;5135160;27;664;-67
2021/05/20 03:21:26;;;;;;;;;;;;;;;21.26;60.46;101651.19;5135090;27;1238;-66
2021/05/20 03:24:11;;;;;;;;;;;;;;;21.25;60.57;101650.31;5150170;27;707;-66
2021/05/20 03:26:57;;;;;;;;;;;;;;;21.25;60.61;101654.75;5151054;27;1356;-66
2021/05/20 03:29:42;;;;;;;;;;;;;;;21.24;60.86;101651.28;5134938;27;1948;-66
2021/05/20 03:32:27;;;;;;;;;;;;;;;21.24;60.72;101648.63;5150430;27;1275;-66
2021/05/20 03:35:12;;;;;;;;;;;;;;;21.25;60.76;101647.66;5150393;27;1259;-66
2021/05/20 03:37:58;;;;;;;;;;;;;;;21.27;60.96;101652.03;5135128;27;648;-66
2021/05/20 03:40:43;;;;;;;;;;;;;;;21.24;61.06;101648.63;5150508;27;1299;-66
2021/05/20 03:43:32;;;;;;;;;;;;;;;21.23;61.05;101646.91;5150764;27;666;-66
2021/05/20 03:46:37;;;;;;;;;;;;;;;21.24;61.27;101648.63;5150817;27;1259;-66
2021/05/20 03:49:22;;;;;;;;;;;;;;;21.24;61.03;101643.34;5149713;27;1909;-66
2021/05/20 03:52:08;;;;;;;;;;;;;;;21.22;61.41;101644.31;5150912;27;1302;-66
2021/05/20 03:54:53;;;;;;;;;;;;;;;21.21;61.25;101648.78;5150255;27;1154;-66
2021/05/20 03:57:38;;;;;;;;;;;;;;;21.23;61.02;101646.91;5149935;27;838;-67
2021/05/20 04:00:24;;;;;;;;;;;;;;;21.23;61.33;101646.91;5150202;27;1364;-66
2021/05/20 04:03:10;;;;;;;;;;;;;;;21.22;61.44;101639.88;5149772;27;631;-67
2021/05/20 04:05:55;;;;;;;;;;;;;;;21.22;61.16;101650.47;5149706;27;1263;-66
2021/05/20 04:08:40;;;;;;;;;;;;;;;21.22;61.33;101644.31;5134767;27;1906;-67
2021/05/20 04:11:28;;;;;;;;;;;;;;;21.21;61.47;101643.50;5141967;27;1512;-66
2021/05/20 04:14:14;;;;;;;;;;;;;;;21.20;61.57;101647.06;5129828;28;659;-66
2021/05/20 04:16:59;;;;;;;;;;;;;;;21.20;61.56;101657.66;5149961;27;1223;-67
2021/05/20 04:19:44;;;;;;;;;;;;;;;21.20;61.53;101656.81;5150085;27;943;-67
2021/05/20 04:22:30;;;;;;;;;;;;;;;21.19;61.56;101645.34;5150020;27;1386;-67
2021/05/20 04:25:15;;;;;;;;;;;;;;;21.18;61.42;101651.59;5130063;27;1337;-67
2021/05/20 04:28:00;;;;;;;;;;;;;;;21.19;61.31;101655.94;5129134;27;1905;-67
2021/05/20 04:30:46;;;;;;;;;;;;;;;21.18;61.49;101656.91;5131814;27;1337;-67
2021/05/20 04:33:31;;;;;;;;;;;;;;;21.18;61.55;101658.69;5113549;28;738;-67
2021/05/20 04:36:17;;;;;;;;;;;;;;;21.18;61.59;101658.69;5131743;27;1243;-66
2021/05/20 04:39:02;;;;;;;;;;;;;;;21.18;61.52;101664.84;5117073;27;648;-67
2021/05/20 04:41:48;;;;;;;;;;;;;;;21.20;61.50;101667.41;5133141;27;1382;-66
2021/05/20 04:44:33;;;;;;;;;;;;;;;21.18;61.49;101674.59;5140649;27;651;-66
2021/05/20 04:47:19;;;;;;;;;;;;;;;21.18;61.35;101674.59;5153628;27;1381;-65
2021/05/20 04:50:05;;;;;;;;;;;;;;;21.18;61.54;101675.44;5131455;27;1903;-65
2021/05/20 04:52:50;;;;;;;;;;;;;;;21.17;61.51;101668.44;5132723;27;636;-66
2021/05/20 04:55:36;;;;;;;;;;;;;;;21.18;61.49;101675.44;5132901;27;1256;-67
2021/05/20 04:58:22;;;;;;;;;;;;;;;21.16;61.48;101672.00;5131783;27;623;-66
2021/05/20 05:01:07;;;;;;;;;;;;;;;21.16;61.39;101677.31;5131378;27;1259;-67
2021/05/20 05:03:52;;;;;;;;;;;;;;;21.16;61.43;101679.09;5131196;27;624;-66
2021/05/20 05:06:38;;;;;;;;;;;;;;;21.23;61.57;101673.41;5124616;27;1514;-66
2021/05/20 05:09:23;;;;;;;;;;;;;;;21.24;61.40;101682.22;5120886;27;1956;-67
2021/05/20 05:12:08;;;;;;;;;;;;;;;21.21;61.24;101683.25;5131224;27;1223;-67
2021/05/20 05:14:54;;;;;;;;;;;;;;;21.23;61.60;101681.34;5131165;27;1113;-66
2021/05/20 05:17:39;;;;;;;;;;;;;;;21.22;61.43;101681.41;5111997;27;679;-66
2021/05/20 05:20:24;;;;;;;;;;;;;;;21.20;61.74;101691.25;5110085;28;1243;-68
2021/05/20 05:23:09;;;;;;;;;;;;;;;21.22;61.74;101692.88;5116597;27;655;-68
2021/05/20 05:25:55;;;;;;;;;;;;;;;21.21;61.69;101695.63;5131724;27;1320;-67
2021/05/20 05:28:40;;;;;;;;;;;;;;;21.22;61.32;101692.88;5131680;27;1909;-66
2021/05/20 05:31:26;;;;;;;;;;;;;;;21.23;61.32;101705.19;5130825;27;1255;-65
2021/05/20 05:34:12;;;;;;;;;;;;;;;21.23;61.43;101710.50;5131637;27;702;-67
2021/05/20 05:36:57;;;;;;;;;;;;;;;21.23;61.64;101710.50;5131944;27;1342;-68
2021/05/20 05:39:42;;;;;;;;;;;;;;;21.36;61.81;101715.16;5130094;27;679;-67
2021/05/20 05:42:28;;;;;;;;;;;;;;;21.39;61.49;101709.69;5131915;27;1385;-65
2021/05/20 05:45:13;;;;;;;;;;;;;;;21.35;61.25;101708.13;5130280;27;1259;-66
2021/05/20 05:47:59;;;;;;;;;;;;;;;21.29;62.17;101711.97;5131065;27;667;-66
2021/05/20 05:50:45;;;;;;;;;;;;;;;21.33;61.90;101725.91;5147546;27;1322;-65
2021/05/20 05:53:45;;;;;;;;;;;;;;;21.30;62.89;101731.38;5150909;27;690;-65
2021/05/20 05:56:30;;;;;;;;;;;;;;;21.30;63.48;101731.38;5151519;27;1249;-65
2021/05/20 05:59:32;;;;;;;;;;;;;;;21.31;63.45;101727.81;5152099;27;688;-67
2021/05/20 06:02:18;;;;;;;;;;;;;;;21.42;64.08;101728.09;5151881;27;1309;-67
2021/05/20 06:05:04;;;;;;;;;;;;;;;21.45;63.94;101725.28;5151462;27;1032;-67
2021/05/20 06:07:50;;;;;;;;;;;;;;;21.35;63.70;101718.72;5151578;27;673;-66
2021/05/20 06:10:36;;;;;;;;;;;;;;;21.34;63.74;101730.28;5151685;27;1259;-66
2021/05/20 06:13:22;;;;;;;;;;;;;;;21.35;63.71;101732.00;5135768;27;706;-67
2021/05/20 06:16:08;;;;;;;;;;;;;;;21.32;63.57;101732.16;5152119;27;1257;-64
2021/05/20 06:18:53;;;;;;;;;;;;;;;21.33;63.91;101736.53;5121746;27;644;-65
2021/05/20 06:21:38;;;;;;;;;;;;;;;21.36;63.77;101726.63;5152153;27;1366;-68
2021/05/20 06:24:24;;;;;;;;;;;;;;;21.36;63.80;101736.34;5150495;27;615;-67
2021/05/20 06:27:09;;;;;;;;;;;;;;;21.31;63.63;101730.47;5134448;27;1377;-66
2021/05/20 06:29:55;;;;;;;;;;;;;;;21.26;63.85;101733.31;5149915;27;1893;-66
2021/05/20 06:32:41;;;;;;;;;;;;;;;21.25;62.49;101729.81;5149895;27;631;-67
2021/05/20 06:35:26;;;;;;;;;;;;;;;21.12;61.65;101730.53;5150329;27;1314;-67
2021/05/20 06:38:11;;;;;;;;;;;;;;;20.81;61.18;101728.56;5150595;27;666;-67
2021/05/20 06:40:58;;;;;;;;;;;;;;;20.75;61.48;101743.91;5147892;27;1393;-68
2021/05/20 06:43:45;;;;;;;;;;;;;;;20.68;60.31;101738.03;5129640;27;776;-68
2021/05/20 06:46:31;;;;;;;;;;;;;;;20.63;60.74;101745.38;5114252;27;1388;-68
2021/05/20 06:49:16;;;;;;;;;;;;;;;20.56;60.48;101743.94;5114743;27;1968;-69
2021/05/20 06:52:02;;;;;;;;;;;;;;;20.60;60.49;101743.72;5146129;27;1302;-68
2021/05/20 06:54:48;;;;;;;;;;;;;;;20.80;60.38;101732.13;5140694;27;1095;-68
2021/05/20 07:00:38;;;;;;;;;;;;;;;21.01;61.19;101724.88;5149664;27;1313;-67
2021/05/20 07:03:24;;;;;;;;;;;;;;;21.07;61.10;101730.72;5135013;27;695;-68
2021/05/20 07:06:10;;;;;;;;;;;;;;;21.14;61.24;101734.81;5125806;27;1374;-68
2021/05/20 07:08:55;;;;;;;;;;;;;;;21.13;61.09;101734.88;5129812;27;1902;-68
2021/05/20 07:11:41;;;;;;;;;;;;;;;21.12;61.22;101728.75;5129681;27;1405;-68
2021/05/20 07:14:26;;;;;;;;;;;;;;;21.10;61.45;101727.09;5129610;27;667;-67
2021/05/20 07:17:12;;;;;;;;;;;;;;;21.10;61.29;101730.63;5129265;27;1279;-68
2021/05/20 07:19:57;;;;;;;;;;;;;;;21.11;61.47;101732.34;5114277;27;1174;-69
2021/05/20 07:22:43;;;;;;;;;;;;;;;21.17;61.59;101737.31;5118428;27;1716;-68
2021/05/20 07:25:28;;;;;;;;;;;;;;;21.23;61.53;101739.66;5129268;27;1457;-66
2021/05/20 07:28:17;;;;;;;;;;;;;;;21.21;61.49;101744.19;5128304;27;750;-68
2021/05/20 07:31:02;;;;;;;;;;;;;;;21.19;61.39;101746.03;5140778;27;1750;-67
2021/05/20 07:33:47;;;;;;;;;;;;;;;21.18;61.26;101741.69;5133134;27;710;-68
2021/05/20 07:36:33;;;;;;;;;;;;;;;21.17;61.58;101739.97;5148644;27;1294;-67
2021/05/20 07:39:18;;;;;;;;;;;;;;;21.17;61.56;101739.09;5148594;27;612;-67
2021/05/20 07:42:04;;;;;;;;;;;;;;;21.18;61.54;101735.53;5148522;27;1252;-66
2021/05/20 07:44:54;;;;;;;;;;;;;;;21.19;61.39;101745.16;5148775;27;1018;-66
2021/05/20 07:47:40;;;;;;;;;;;;;;;21.18;61.40;101743.47;5148311;27;674;-67
2021/05/20 07:50:25;;;;;;;;;;;;;;;21.18;61.53;101743.47;5147852;27;1905;-68
2021/05/20 07:53:11;;;;;;;;;;;;;;;21.20;61.59;101745.09;5148522;27;638;-67
2021/05/20 07:55:57;;;;;;;;;;;;;;;21.20;61.62;101747.75;5143357;27;1726;-67
2021/05/20 07:58:42;;;;;;;;;;;;;;;21.21;61.27;101748.63;5139528;27;655;-68
2021/05/20 08:01:29;;;;;;;;;;;;;;;21.29;61.57;101745.56;5148235;27;1290;-68
2021/05/20 08:04:16;;;;;;;;;;;;;;;21.26;61.61;101746.56;5141822;27;1509;-68
2021/05/20 08:12:54;;;;;;;;;;;;;;;21.24;61.24;101748.47;5152494;27;687;-68
2021/05/20 08:15:40;;;;;;;;;;;;;;;21.23;61.12;101747.59;5136710;27;1286;-67
2021/05/20 08:18:25;;;;;;;;;;;;;;;21.23;61.19;101747.59;5152977;27;725;-68
2021/05/20 08:21:10;;;;;;;;;;;;;;;21.23;61.53;101752.03;5153301;27;1391;-67
2021/05/20 08:23:56;;;;;;;;;;;;;;;21.23;61.46;101750.25;5136527;27;667;-67
2021/05/20 08:26:41;;;;;;;;;;;;;;;21.22;61.15;101759.13;5136716;27;1314;-67
2021/05/20 08:29:28;;;;;;;;;;;;;;;21.21;61.39;101752.13;5134944;27;1957;-67
2021/05/20 08:32:14;;;;;;;;;;;;;;;21.20;61.48;101747.75;5131562;27;1397;-67
2021/05/20 08:35:00;;;;;;;;;;;;;;;21.22;61.41;101751.16;5115702;27;1187;-68
2021/05/20 08:37:45;;;;;;;;;;;;;;;21.24;61.38;101748.47;5131468;27;600;-67
2021/05/20 08:40:31;;;;;;;;;;;;;;;21.25;61.22;101752.81;5118306;27;1251;-68
2021/05/20 08:43:17;;;;;;;;;;;;;;;21.25;61.33;101761.63;5134703;27;710;-68
2021/05/20 08:46:02;;;;;;;;;;;;;;;21.25;61.05;101755.44;5135297;27;1326;-67
2021/05/20 08:48:48;;;;;;;;;;;;;;;21.25;61.00;101753.66;5151148;27;1905;-68
2021/05/20 08:51:33;;;;;;;;;;;;;;;21.25;60.75;101751.00;5150314;27;1326;-68
2021/05/20 08:54:21;;;;;;;;;;;;;;;21.27;60.81;101753.59;5151328;27;761;-69
2021/05/20 08:57:22;;;;;;;;;;;;;;;21.27;60.82;101756.25;5151399;27;1374;-67
2021/05/20 09:00:19;;;;;;;;;;;;;;;21.27;60.86;101752.75;5151495;27;1362;-67
2021/05/20 09:03:05;;;;;;;;;;;;;;;21.26;60.79;101746.56;5148913;27;1063;-67
2021/05/20 09:05:50;;;;;;;;;;;;;;;21.27;60.78;101750.09;5136406;27;1310;-66
2021/05/20 09:08:40;;;;;;;;;;;;;;;21.27;60.95;101756.25;5147247;27;1611;-66
2021/05/20 09:11:26;;;;;;;;;;;;;;;21.27;60.90;101758.03;5136104;27;1427;-68
2021/05/20 09:14:11;;;;;;;;;;;;;;;21.28;60.47;101762.41;5130408;27;647;-66
2021/05/20 09:17:13;;;;;;;;;;;;;;;21.28;60.42;101751.81;5129815;27;1334;-67
2021/05/20 09:19:59;;;;;;;;;;;;;;;21.31;61.05;101754.31;5149553;27;1537;-64
2021/05/20 09:22:49;;;;;;;;;;;;;;;21.29;60.71;101749.06;5136666;27;935;-67
2021/05/20 09:25:35;;;;;;;;;;;;;;;21.30;60.50;101749.94;5130574;27;1436;-67
2021/05/20 09:28:35;;;;;;;;;;;;;;;21.31;60.49;101741.06;5114354;27;1058;-67
2021/05/20 09:31:40;;;;;;;;;;;;;;;21.31;60.38;101746.34;5129841;27;1910;-67
2021/05/20 09:34:27;;;;;;;;;;;;;;;21.32;60.33;101750.69;5114142;27;709;-67
2021/05/20 09:37:13;;;;;;;;;;;;;;;21.32;60.44;101740.09;5129484;27;1389;-67
2021/05/20 09:40:02;;;;;;;;;;;;;;;21.31;60.35;101739.22;5130154;27;690;-67
2021/05/20 09:42:48;;;;;;;;;;;;;;;21.32;60.35;101737.44;5132213;27;1069;-66
2021/05/20 09:45:34;;;;;;;;;;;;;;;21.32;60.46;101737.44;5119595;27;1331;-66
2021/05/20 09:48:21;;;;;;;;;;;;;;;21.31;60.40;101736.59;5152330;27;1054;-68
2021/05/20 09:51:19;;;;;;;;;;;;;;;21.32;60.12;101730.34;5147056;27;1902;-68
2021/05/20 09:54:04;;;;;;;;;;;;;;;21.33;60.37;101726.78;5136505;27;1085;-67
2021/05/20 09:56:51;;;;;;;;;;;;;;;21.34;60.10;101732.94;5114945;27;1267;-68
2021/05/20 09:59:36;;;;;;;;;;;;;;;21.35;60.40;101726.69;5131401;27;628;-68
2021/05/20 10:02:21;;;;;;;;;;;;;;;21.34;60.79;101717.88;5130705;27;1329;-68
2021/05/20 10:05:24;;;;;;;;;;;;;;;21.35;60.49;101713.44;5131308;27;745;-67
2021/05/20 10:08:11;;;;;;;;;;;;;;;21.35;60.41;101716.94;5115538;27;1129;-68
2021/05/20 10:10:57;;;;;;;;;;;;;;;21.35;60.44;101710.78;5137409;27;1957;-68
2021/05/20 10:13:43;;;;;;;;;;;;;;;21.35;60.88;101716.94;5136030;27;1066;-67
2021/05/20 10:16:29;;;;;;;;;;;;;;;21.37;60.84;101711.59;5148126;27;1429;-67
2021/05/20 10:19:14;;;;;;;;;;;;;;;21.37;60.83;101714.22;5135821;27;1112;-67
2021/05/20 10:22:00;;;;;;;;;;;;;;;21.40;60.86;101711.41;5130559;27;1319;-66
2021/05/20 10:24:46;;;;;;;;;;;;;;;21.36;61.21;101710.72;5130996;27;628;-67
2021/05/20 10:27:31;;;;;;;;;;;;;;;21.39;61.45;101715.00;5130991;27;1433;-66
2021/05/20 10:30:18;;;;;;;;;;;;;;;21.41;62.06;101707.81;5115317;27;1965;-66
2021/05/20 10:33:04;;;;;;;;;;;;;;;21.39;62.35;101715.84;5131201;27;963;-66
2021/05/20 10:35:53;;;;;;;;;;;;;;;21.39;62.75;101720.28;5129796;27;1383;-67
2021/05/20 10:38:39;;;;;;;;;;;;;;;21.40;63.05;101717.56;5115372;27;1090;-67
2021/05/20 10:41:27;;;;;;;;;;;;;;;21.40;63.31;101711.41;5130098;27;1325;-67
2021/05/20 10:44:14;;;;;;;;;;;;;;;21.39;63.83;101731.75;5130321;27;872;-67
2021/05/20 10:47:02;;;;;;;;;;;;;;;21.41;64.27;101729.00;5134680;27;1338;-67
2021/05/20 10:49:49;;;;;;;;;;;;;;;21.41;64.22;101723.72;5114562;27;2056;-66
2021/05/20 10:52:42;;;;;;;;;;;;;;;21.40;63.42;101712.25;5113476;27;1317;-68
2021/05/20 10:55:35;;;;;;;;;;;;;;;21.42;63.93;101714.84;5132689;27;1382;-66
2021/05/20 10:58:39;;;;;;;;;;;;;;;21.41;63.34;101705.16;5132764;27;1096;-66
2021/05/20 11:01:25;;;;;;;;;;;;;;;21.42;64.03;101709.53;5113690;27;1287;-65
2021/05/20 11:04:11;;;;;;;;;;;;;;;21.43;63.88;101711.25;5113541;27;751;-66
2021/05/20 11:06:57;;;;;;;;;;;;;;;21.41;63.32;101703.38;5113745;27;1375;-66
2021/05/20 11:09:47;;;;;;;;;;;;;;;21.42;62.99;101688.31;5133554;27;2229;-66
2021/05/20 11:12:52;;;;;;;;;;;;;;;21.41;63.21;101691.91;5138218;27;1304;-65
2021/05/20 11:15:37;;;;;;;;;;;;;;;21.42;62.86;101688.31;5129101;27;1348;-67
2021/05/20 11:18:33;;;;;;;;;;;;;;;21.42;62.81;101694.50;5129357;27;1089;-67
2021/05/20 11:21:20;;;;;;;;;;;;;;;21.42;62.94;101689.19;5129230;27;1298;-64
2021/05/20 11:24:15;;;;;;;;;;;;;;;21.42;62.72;101683.03;5113419;28;1026;-65
2021/05/20 11:27:00;;;;;;;;;;;;;;;21.42;62.45;101680.38;5129435;27;1343;-67
2021/05/20 11:29:49;;;;;;;;;;;;;;;21.43;62.39;101687.41;5129069;27;1930;-64
2021/05/20 11:32:34;;;;;;;;;;;;;;;21.46;63.13;101679.28;5128785;27;1342;-65
2021/05/20 11:38:24;;;;;;;;;;;;;;;21.47;62.49;101680.97;5136317;27;1520;-65
2021/05/20 11:41:14;;;;;;;;;;;;;;;21.46;62.07;101674.81;5136922;27;1730;-65
2021/05/20 11:44:04;;;;;;;;;;;;;;;21.48;62.23;101661.50;5127451;28;1186;-65
2021/05/20 11:47:02;;;;;;;;;;;;;;;21.47;62.21;101665.06;5117771;27;1407;-64
2021/05/20 11:49:48;;;;;;;;;;;;;;;21.49;62.20;101657.91;5140938;27;1890;-64
2021/05/20 11:52:35;;;;;;;;;;;;;;;21.50;61.92;101656.94;5131123;27;1296;-63
2021/05/20 11:55:22;;;;;;;;;;;;;;;21.50;61.80;101657.81;5131348;27;1352;-64
2021/05/20 11:58:07;;;;;;;;;;;;;;;21.50;61.83;101672.84;5131614;27;1169;-65
2021/05/20 12:01:10;;;;;;;;;;;;;;;21.48;61.80;101662.34;5131025;27;1366;-66
2021/05/20 12:04:02;;;;;;;;;;;;;;;21.51;61.86;101674.56;5131682;27;1153;-64
2021/05/20 12:06:50;;;;;;;;;;;;;;;21.52;61.57;101665.69;5130982;27;1251;-65
2021/05/20 12:09:38;;;;;;;;;;;;;;;21.54;62.18;101662.03;5115717;27;1952;-65
2021/05/20 12:12:23;;;;;;;;;;;;;;;21.56;62.29;101653.97;5131372;27;1287;-63
2021/05/20 12:15:14;;;;;;;;;;;;;;;21.54;62.12;101648.75;5131516;27;671;-64
2021/05/20 12:18:00;;;;;;;;;;;;;;;21.60;63.08;101642.25;5114377;27;1019;-66
2021/05/20 12:20:46;;;;;;;;;;;;;;;21.81;62.67;101633.13;5131066;27;1381;-65
2021/05/20 12:23:32;;;;;;;;;;;;;;;21.81;62.52;101622.50;5131115;27;1039;-66
2021/05/20 12:26:27;;;;;;;;;;;;;;;21.85;63.35;101623.19;5115116;27;1381;-65
2021/05/20 12:29:13;;;;;;;;;;;;;;;21.87;62.17;101623.97;5131162;27;644;-64
2021/05/20 12:31:58;;;;;;;;;;;;;;;21.88;63.65;101625.69;5131360;27;1977;-65
2021/05/20 12:34:43;;;;;;;;;;;;;;;21.91;63.70;101625.53;5116340;27;695;-66
2021/05/20 12:37:38;;;;;;;;;;;;;;;21.95;63.27;101612.00;5116299;27;1302;-63
2021/05/20 12:40:24;;;;;;;;;;;;;;;21.99;63.18;101613.53;5131544;27;1375;-63
2021/05/20 12:43:17;;;;;;;;;;;;;;;22.01;63.63;101606.34;5131795;27;1126;-65
2021/05/20 12:46:07;;;;;;;;;;;;;;;21.92;63.38;101600.72;5149735;27;1684;-66
2021/05/20 12:48:57;;;;;;;;;;;;;;;21.93;61.07;101600.63;5147068;27;1112;-66
2021/05/20 12:51:54;;;;;;;;;;;;;;;21.92;59.75;101600.72;5151589;27;1969;-66
2021/05/20 12:54:39;;;;;;;;;;;;;;;21.98;55.56;101597.72;5136037;27;663;-64
2021/05/20 12:57:24;;;;;;;;;;;;;;;22.01;52.85;101602.88;5150208;27;1372;-66
2021/05/20 13:00:10;;;;;;;;;;;;;;;21.99;51.78;101594.97;5151562;27;722;-67
2021/05/20 13:03:02;;;;;;;;;;;;;;;22.01;51.92;101595.72;5140919;27;1481;-64
2021/05/20 13:05:51;;;;;;;;;;;;;;;21.94;53.65;101597.03;5140241;27;1267;-66
2021/05/20 13:08:40;;;;;;;;;;;;;;;22.00;51.72;101598.50;5134338;27;1313;-69
2021/05/20 13:11:31;;;;;;;;;;;;;;;21.99;52.38;101594.97;5127818;27;1914;-67
2021/05/20 13:14:38;;;;;;;;;;;;;;;21.98;50.51;101593.25;5148793;27;1358;-67
2021/05/20 13:22:09;;;;;;;;;;;;;;;22.05;49.28;101584.00;5131331;27;789;-68
2021/05/20 13:23:23;;;;;;;;;;;;;;;22.03;51.17;101575.31;5130879;27;1091;-67
2021/05/20 13:26:20;;;;;;;;;;;;;;;22.02;53.10;101578.03;5141689;27;1541;-67
2021/05/20 13:29:05;;;;;;;;;;;;;;;22.00;53.08;101580.78;5151764;27;949;-69
2021/05/20 13:31:51;;;;;;;;;;;;;;;22.01;51.05;101566.56;5150943;27;1969;-68
2021/05/20 13:34:38;;;;;;;;;;;;;;;22.01;49.02;101563.91;5135649;27;612;-68
2021/05/20 13:37:23;;;;;;;;;;;;;;;21.98;50.50;101566.72;5142389;27;1437;-68
2021/05/20 13:40:18;;;;;;;;;;;;;;;21.95;51.81;101566.91;5130100;27;668;-68
2021/05/20 13:43:04;;;;;;;;;;;;;;;21.92;50.56;101559.13;5140683;27;1532;-68
2021/05/20 13:45:50;;;;;;;;;;;;;;;21.90;49.04;101558.38;5129530;27;1271;-67
2021/05/20 13:48:35;;;;;;;;;;;;;;;21.92;50.99;101559.13;5136957;27;1398;-69
2021/05/20 13:51:20;;;;;;;;;;;;;;;21.85;50.44;101547.16;5115731;27;1882;-68
2021/05/20 13:54:07;;;;;;;;;;;;;;;21.83;51.60;101546.34;5130411;27;1109;-68
2021/05/20 13:56:52;;;;;;;;;;;;;;;21.82;52.55;101528.75;5114536;27;1276;-68
2021/05/20 13:59:40;;;;;;;;;;;;;;;21.82;52.39;101527.91;5130129;27;722;-68
2021/05/20 14:02:35;;;;;;;;;;;;;;;21.81;52.03;101521.72;5129702;27;1405;-69
2021/05/20 14:05:21;;;;;;;;;;;;;;;21.82;52.75;101522.59;5129368;27;1279;-68
2021/05/20 14:08:06;;;;;;;;;;;;;;;21.83;53.44;101517.19;5129229;27;1091;-67
2021/05/20 14:10:52;;;;;;;;;;;;;;;21.86;54.39;101510.84;5129289;27;1921;-69
2021/05/20 14:13:41;;;;;;;;;;;;;;;21.83;53.89;101498.63;5144117;27;1370;-67
2021/05/20 14:16:27;;;;;;;;;;;;;;;21.80;52.98;101491.69;5142171;27;1399;-67
2021/05/20 14:19:15;;;;;;;;;;;;;;;21.79;54.25;101497.94;5149921;27;651;-67
2021/05/20 14:22:20;;;;;;;;;;;;;;;21.80;54.14;101489.06;5149591;27;1417;-68
2021/05/20 14:25:07;;;;;;;;;;;;;;;21.81;55.88;101484.59;5148870;27;723;-67
2021/05/20 14:27:52;;;;;;;;;;;;;;;21.80;54.65;101486.41;5149063;27;1104;-65
2021/05/20 14:30:42;;;;;;;;;;;;;;;21.81;54.18;101492.56;5149272;27;1926;-64
2021/05/20 14:33:29;;;;;;;;;;;;;;;21.83;54.75;101484.50;5141478;27;1524;-64
2021/05/20 14:36:14;;;;;;;;;;;;;;;21.83;54.19;101474.75;5132754;27;1398;-65
2021/05/20 14:39:00;;;;;;;;;;;;;;;21.88;55.77;101479.81;5140783;27;1600;-67
2021/05/20 14:41:47;;;;;;;;;;;;;;;21.90;55.83;101473.50;5132338;27;1306;-68
2021/05/20 14:44:36;;;;;;;;;;;;;;;21.94;56.04;101466.22;5132756;27;698;-68
2021/05/20 14:47:23;;;;;;;;;;;;;;;21.92;56.70;101468.06;5117457;27;1376;-66
2021/05/20 14:50:09;;;;;;;;;;;;;;;21.93;56.09;101473.31;5132902;27;1362;-65